AirNav   Air Wisconsin Up To $57,000 Bonus
 
 789 users online  

13C Lakeview Airport/Griffith Field
Lakeview, Michigan, USA

GOING TO LAKEVIEW?


FAA INFORMATION EFFECTIVE 08 SEPTEMBER 2022

Location

FAA Identifier: 13C
Lat/Long: 43-27-08.1000N 085-15-52.7000W
43-27.135000N 085-15.878333W
43.4522500,-85.2646389
(estimated)
Elevation: 968.9 ft. / 295.3 m (surveyed)
Variation: 05W (2000)
From city: 1 mile NE of LAKEVIEW, MI
Time zone: UTC -4 (UTC -5 during Standard Time)
Zip code: 48850

Airport Operations

Airport use: Open to the public
Activation date: 12/1944
Control tower: no
ARTCC: CHICAGO CENTER
FSS: LANSING FLIGHT SERVICE STATION
NOTAMs facility: LAN (NOTAM-D service available)
Attendance: 0800-DUSK
FOR SVC AFT HRS CALL AMGR.
Wind indicator: lighted
Segmented circle: yes
Lights: ACTVT REIL RWY 10 & 28; PAPI RWY 10 & 28; MIRL RWY 10/28 - CTAF.
Beacon: white-green (lighted land airport)
Operates sunset to sunrise.

Airport Communications

CTAF/UNICOM: 122.8
GREAT LAKES APPROACH: 124.6 [0530-0000]
GREAT LAKES DEPARTURE: 124.6 [0530-0000]
WX AWOS-3P at RQB (19 nm NW): 125.875 (231-796-0884)
  • APCH/DEP SVC PRVDD BY CHICAGO ARTCC (ZAU) ON FREQS 132.275/254.35 (MUSKEGON RCAG) WHEN GREAT LAKES APCH CTL CLSD.

Nearby radio navigation aids

VOR radial/distance  VOR name  Freq  Var
MOPr251/25.1MOUNT PLEASANT VOR/DME110.6005W

Airport Services

Fuel available: 100LL
100LL:FUEL AVBL H24 SELF SVC.
Parking: tiedowns
Airframe service: MAJOR
Powerplant service: MAJOR
Bottled oxygen: NONE
Bulk oxygen: NONE

Runway Information

Runway 10/28

Dimensions: 3499 x 75 ft. / 1066 x 23 m
Surface: asphalt, in good condition
Weight bearing capacity: 
Single wheel: 12.0
Runway edge lights: medium intensity
RUNWAY 10  RUNWAY 28
Latitude: 43-27.128585N43-27.140355N
Longitude: 085-16.272793W085-15.482405W
Elevation: 963.0 ft.967.0 ft.
Traffic pattern: leftleft
Runway heading: 094 magnetic, 089 true274 magnetic, 269 true
Markings: nonprecision, in good conditionnonprecision, in good condition
Visual slope indicator: 2-light PAPI on left (3.00 degrees glide path)2-light PAPI on left (3.00 degrees glide path)
Runway end identifier lights: yesyes
Touchdown point: yes, no lightsyes, no lights
Obstructions: 66 ft. trees, 1590 ft. from runway, 15 ft. right of centerline, 21:1 slope to clear75 ft. trees, 1710 ft. from runway, 20:1 slope to clear
8 FT BRUSH TREE, 50 FT DIST, 240 FT L.

Airport Ownership and Management from official FAA records

Ownership: Publicly-owned
Owner: VILLAGE OF LAKEVIEW
208 S LINCOLN AVE, PO BOX 30
LAKEVIEW, MI 48850-0030
Phone 989-352-6322
CITY MGR OFC.
Manager: DARIN DOOD
208 S LINCOLN AVE, PO BOX 30
LAKEVIEW, MI 48850-0030
Phone 989-506-8874
CELL.

Airport Operational Statistics

Aircraft based on the field: 25
Single engine airplanes: 25
    
Aircraft operations: avg 28/day *
49% transient general aviation
49% local general aviation
2% military
* for 12-month period ending 31 December 2021

Additional Remarks

EXTSV AGRICULTURAL OPS.
DEER & BIRDS ON & INVOF ARPT.
FOR CD CTC GREAT LAKES APCH AT 269-459-3344, WHEN APCH CLSD CTC CHICAGO ARTCC AT 630-906-8921.

Instrument Procedures

NOTE: All procedures below are presented as PDF files. If you need a reader for these files, you should download the free Adobe Reader.

NOT FOR NAVIGATION. Please procure official charts for flight.
FAA instrument procedures published for use from 8 September 2022 at 0901Z to 6 October 2022 at 0900Z.

 
IAPs - Instrument Approach Procedures
RNAV (GPS) RWY 10   download (175KB)
RNAV (GPS) RWY 28   download (183KB)
NOTE: Special Take-Off Minimums/Departure Procedures apply   download (352KB)

Other nearby airports with instrument procedures:

6D6 - Greenville Municipal Airport (19 nm S)
KRQB - Roben-Hood Airport (19 nm NW)
KMOP - Mount Pleasant Municipal Airport (25 nm NE)
KAMN - Gratiot Community Airport (26 nm E)
8D4 - Paul C Miller-Sparta Airport (27 nm SW)
 
Loc | Ops | Rwys | IFR | FBO | Links
Com | Nav | Svcs | Stats | Notes
Area around 13C (Lakeview Airport/Griffith Field)
 
Road maps at: MapQuest Bing Google
 
Aerial photo
WARNING: Photo may not be current or correct
Aerial photo of 13C (Lakeview Airport/Griffith Field)
Photo by Paul "Wally" Roode

Do you have a better or more recent aerial photo of Lakeview Airport/Griffith Field that you would like to share? If so, please send us your photo.

 
Sectional chart

 
Airport distance calculator
Flying to Lakeview Airport/Griffith Field? Find the distance to fly.

From to 13C

Sunrise and sunset
Times for 25-Sep-2022
 Local
(UTC-4)
 Zulu
(UTC)
Morning civil twilight07:0411:04
Sunrise07:3311:33
Sunset19:3323:33
Evening civil twilight20:0100:01

Current date and time
Zulu (UTC)  25-Sep-2022 12:13:44
Local (UTC-4)  25-Sep-2022 08:13:44
 
METAR
KRQB 
19nm NW 
251155Z AUTO 00000KT 3SM +RA BKN006 OVC010 13/13 A2965 RMK AO2 60004 70006 T01310125 10141 20129 P0001
KMOP 
25nm NE 
251155Z AUTO 00000KT 4SM BR BKN004 BKN016 OVC029 13/13 A2964 RMK AO2 T01250125 10125 20111
KAMN 
27nm E 
251155Z AUTO 28003KT 1 1/2SM +DZ SCT004 BKN016 OVC021 13/13 A2965 RMK AO2 T01320125 10135 20122
KFFX 
32nm W 
251155Z AUTO 30003KT 10SM SCT006 BKN011 OVC019 15/13 A2966 RMK AO2 T01450128 10145 20141
KY70 
32nm S 
251155Z AUTO 21003KT 4SM BR BKN014 OVC027 14/14 A2965 RMK AO2 T01350135 10140 20132
KGRR 
36nm S 
251153Z 28005KT 7SM FEW009 SCT020 OVC043 14/13 A2966 RMK AO2 SLP044 T01390128 10144 20139 53003
TAF
KGRR 
36nm S 
251124Z 2512/2612 27005KT P6SM SCT009 OVC024 FM251400 32007KT P6SM BKN024 FM251600 31009KT P6SM VCSH OVC018 FM251800 29012G21KT P6SM VCSH OVC027 FM252100 29013G21KT P6SM -SHRA VCTS BKN045CB FM260300 30010KT P6SM -SHRA BKN050 FM260800 27010KT P6SM OVC025
NOTAMs
Click for the latest NOTAMs
NOTAMs are issued by the DoD/FAA and will open in a separate window not controlled by AirNav.

 

 
 

FBO, Fuel Providers, and Aircraft Ground Support

  
 Business Name 
 
 Contact 
 
 Services / Description 
 
Fuel Prices
 
Comments
  
Petersen Oil Company Inc 989-506-8874
no information available

If you are affiliated with Petersen Oil Company Inc and would like to show here your services, contact info, web link, logo, and more, click here
100LL
SS $7.39 
 Updated 06-Sep-2022
 
   write
SS=Self service
Update Fuel Prices
 

Would you like to see your business listed on this page?

 If your business provides an interesting product or service to pilots, flight crews, aircraft, or users of the Lakeview Airport/Griffith Field, you should consider listing it here.  To start the listing process, click on the button below
 
Add a business
 

Other Pages about Lakeview Airport/Griffith Field

Page from the Michigan Airport Directory (PDF)
 
Update a link
 
Copyright © AirNav, LLC. All rights reserved. Privacy Policy  Contact